Latest Weather Observations for Dennes Point

IDT60901

Issued at 8:21 am EST Friday 23 June 2017 (issued every 10 minutes, with the page automatically refreshed every 10 minutes)

About weather observations | Map of Hobart area stations | Latest observations for Hobart area | Other Formats
Station Details ID: 094255 Name: DENNES POINT Lat: -43.06 Lon: 147.36 Height: 5.67 m
Data from the previous 72 hours. | See also: Recent months at Dennes Point
Date/Time
EST
Temp
°C
App
Temp
°C
Dew
Point
°C
Rel
Hum
%
Delta-T
°C
Wind Press
QNH
hPa
Press
MSL
hPa
Rain since
9am
mm
Dir  Spd
km/h
Gust
km/h
Spd
kts
Gust
kts
23/08:00am 11.7 8.1 4.9 63 3.1 NW 13 20 7 11 1007.0 1007.0 0.0
23/07:30am 11.8 7.2 5.4 65 3.0 NW 19 26 10 14 1007.4 1007.4 0.0
23/07:00am 11.5 7.2 5.4 66 2.8 NW 17 24 9 13 1008.0 1008.0 0.0
23/06:30am 8.9 5.4 5.6 80 1.5 WSW 13 17 7 9 1008.2 1008.2 0.0
23/06:00am 10.2 8.8 3.7 64 2.9 CALM 0 2 0 1 1008.1 1008.1 0.0
23/05:30am 10.0 7.8 5.2 72 2.2 ESE 6 11 3 6 1008.1 1008.1 0.0
23/05:00am 10.5 7.0 5.5 71 2.3 NNE 13 19 7 10 1008.4 1008.4 0.0
23/04:30am 10.6 6.9 6.2 74 2.0 N 15 20 8 11 1009.3 1009.3 0.0
23/04:00am 10.3 6.9 6.1 75 1.9 N 13 17 7 9 1009.8 1009.8 0.0
23/03:30am 10.3 7.2 5.7 73 2.1 NNE 11 15 6 8 1010.3 1010.3 0.0
23/03:00am 9.9 7.6 5.5 74 2.0 NNW 7 13 4 7 1011.2 1011.2 0.0
23/02:30am 9.8 6.7 5.4 74 2.0 N 11 17 6 9 1011.8 1011.8 0.0
23/02:00am 9.5 6.1 5.7 77 1.7 NNE 13 17 7 9 1012.3 1012.3 0.0
23/01:30am 9.2 6.4 5.0 75 1.9 N 9 11 5 6 1012.7 1012.7 0.0
23/01:00am 9.0 5.7 4.4 73 2.0 N 11 13 6 7 1013.1 1013.1 0.0
23/12:30am 9.0 5.3 4.4 73 2.0 N 13 17 7 9 1013.6 1013.6 0.0
23/12:00am 9.4 5.8 4.8 73 2.1 N 13 17 7 9 1014.0 1014.0 0.0
 
Date/Time
EST
Temp
°C
App
Temp
°C
Dew
Point
°C
Rel
Hum
%
Delta-T
°C
Wind Press
QNH
hPa
Press
MSL
hPa
Rain since
9am
mm
Dir  Spd
km/h
Gust
km/h
Spd
kts
Gust
kts
22/11:30pm 8.5 6.0 3.8 72 2.0 N 6 9 3 5 1014.7 1014.7 0.0
22/11:00pm 9.2 5.1 4.4 72 2.1 NNE 15 20 8 11 1015.2 1015.2 0.0
22/10:30pm 9.3 4.9 4.7 73 2.0 N 17 20 9 11 1015.6 1015.6 0.0
22/10:00pm 8.7 6.2 3.9 72 2.1 NNW 6 7 3 4 1016.1 1016.1 0.0
22/09:30pm 9.3 5.2 4.5 72 2.1 NNE 15 19 8 10 1016.6 1016.6 0.0
22/09:00pm 8.9 3.8 3.9 71 2.2 NE 20 24 11 13 1016.5 1016.5 0.0
22/08:30pm 8.8 5.7 3.8 71 2.2 NE 9 11 5 6 1017.0 1017.0 0.0
22/08:00pm 8.9 6.4 3.5 69 2.3 NNE 6 9 3 5 1017.1 1017.1 0.0
22/07:30pm 9.6 5.1 4.2 69 2.4 NNE 17 22 9 12 1017.1 1017.1 0.0
22/07:00pm 9.5 5.4 4.3 70 2.3 N 15 22 8 12 1017.6 1017.6 0.0
22/06:30pm 9.8 4.6 3.8 66 2.6 N 20 28 11 15 1018.1 1018.1 0.0
22/06:00pm 9.8 5.2 3.8 66 2.6 N 17 20 9 11 1018.5 1018.5 0.0
22/05:30pm 9.8 6.2 2.9 62 3.0 NNW 11 20 6 11 1018.7 1018.7 0.0
22/05:00pm 9.8 7.0 2.9 62 2.9 N 7 13 4 7 1019.2 1019.2 0.0
22/04:30pm 10.1 6.5 3.2 62 3.0 N 11 15 6 8 1019.5 1019.5 0.0
22/04:00pm 10.5 7.7 1.9 55 3.6 NNW 6 7 3 4 1019.8 1019.8 0.0
22/03:30pm 10.2 7.2 2.3 58 3.4 N 7 9 4 5 1019.9 1019.9 0.0
22/03:00pm 10.2 5.5 3.0 61 3.1 N 17 20 9 11 1020.7 1020.7 0.0
22/02:30pm 10.2 7.3 2.8 60 3.2 N 7 19 4 10 1020.7 1020.7 0.0
22/02:00pm 10.9 7.8 1.2 51 4.0 N 7 11 4 6 1021.2 1021.2 0.0
22/01:30pm 10.7 7.3 2.0 55 3.7 NNW 9 19 5 10 1021.9 1021.9 0.0
22/01:00pm 10.1 7.2 2.7 60 3.2 N 7 11 4 6 1022.4 1022.4 0.0
22/12:30pm 10.0 6.4 3.1 62 3.0 N 11 13 6 7 1022.9 1022.9 0.0
22/12:00pm 10.3 6.4 1.2 53 3.7 NNW 11 22 6 12 1023.3 1023.3 0.0
22/11:30am 9.1 5.2 3.3 67 2.5 NNE 13 17 7 9 1023.9 1023.9 0.0
22/11:00am 8.8 5.6 3.0 67 2.5 N 9 15 5 8 1024.4 1024.4 0.0
22/10:30am 8.3 5.5 1.9 64 2.6 NNE 6 9 3 5 1025.0 1025.0 0.0
22/10:00am 7.7 3.4 3.0 72 2.0 NNE 15 20 8 11 1025.3 1025.3 0.0
22/09:30am 7.5 4.9 3.0 73 1.9 NNE 6 7 3 4 1025.6 1025.6 0.0
22/09:00am 6.6 5.0 2.7 76 1.6 CALM 0 2 0 1 1025.8 1025.8 0.0
22/08:30am 5.7 3.0 2.5 80 1.3 NW 6 7 3 4 1026.0 1026.0 0.0
22/08:00am 4.6 2.4 3.3 91 0.5 NNW 4 6 2 3 1026.1 1026.1 0.0
22/07:30am 2.5 -0.7 0.7 88 0.7 SSW 7 9 4 5 1026.4 1026.4 0.0
22/07:00am 4.5 2.0 1.7 82 1.1 SSW 4 6 2 3 1026.4 1026.4 0.0
22/06:30am 4.6 2.5 1.8 82 1.1 SSW 2 4 1 2 1026.4 1026.4 0.0
22/06:00am 3.3 0.4 1.2 86 0.8 SSW 6 9 3 5 1026.8 1026.8 0.0
22/05:30am 4.3 1.8 1.8 84 1.0 SW 4 6 2 3 1026.9 1026.9 0.0
22/05:00am 4.8 3.2 2.5 85 0.9 CALM 0 2 0 1 1027.0 1027.0 0.0
22/04:30am 3.7 -0.2 1.4 85 0.9 S 11 15 6 8 1027.2 1027.2 0.0
22/04:00am 3.2 -1.0 1.6 89 0.6 SSW 13 17 7 9 1027.2 1027.2 0.0
22/03:30am 3.1 -0.4 1.2 87 0.7 SSW 9 11 5 6 1027.4 1027.4 0.0
22/03:00am 3.6 0.1 1.3 85 0.9 S 9 11 5 6 1027.8 1027.8 0.0
22/02:30am 4.0 0.6 1.9 86 0.8 S 9 13 5 7 1028.1 1028.1 0.0
22/02:00am 3.8 0.6 0.5 79 1.2 SSW 7 9 4 5 1028.1 1028.1 0.0
22/01:30am 4.2 0.8 1.9 85 0.9 S 9 11 5 6 1028.2 1028.2 0.0
22/01:00am 4.5 1.5 1.7 82 1.1 S 7 9 4 5 1028.4 1028.4 0.0
22/12:30am 5.6 3.1 1.7 76 1.6 W 4 6 2 3 1028.5 1028.5 0.0
22/12:00am 4.8 2.2 0.9 76 1.5 SSW 4 6 2 3 1028.8 1028.8 0.0
 
Date/Time
EST
Temp
°C
App
Temp
°C
Dew
Point
°C
Rel
Hum
%
Delta-T
°C
Wind Press
QNH
hPa
Press
MSL
hPa
Rain since
9am
mm
Dir  Spd
km/h
Gust
km/h
Spd
kts
Gust
kts
21/11:30pm 4.6 1.5 1.5 80 1.2 S 7 9 4 5 1028.9 1028.9 0.0
21/11:00pm 4.9 1.5 2.1 82 1.1 SSW 9 13 5 7 1029.0 1029.0 0.0
21/10:30pm 5.0 1.3 2.2 82 1.1 S 11 13 6 7 1029.0 1029.0 0.0
21/10:00pm 5.2 1.8 2.0 80 1.3 S 9 11 5 6 1029.0 1029.0 0.0
21/09:30pm 5.2 1.6 3.2 87 0.8 SSW 11 13 6 7 1029.1 1029.1 0.0
21/09:00pm 6.0 3.3 2.5 78 1.4 SSW 6 11 3 6 1029.1 1029.1 0.0
21/08:30pm 6.5 3.7 2.9 78 1.5 WSW 7 13 4 7 1029.1 1029.1 0.0
21/08:00pm 6.5 2.8 2.4 75 1.7 W 11 13 6 7 1029.1 1029.1 0.0
21/07:30pm 7.5 3.5 2.8 72 2.0 W 13 15 7 8 1029.1 1029.1 0.0
21/07:00pm 7.5 3.9 3.0 73 1.9 WNW 11 13 6 7 1028.8 1028.8 0.0
21/06:30pm 7.2 3.2 3.1 75 1.7 W 13 15 7 8 1028.5 1028.5 0.0
21/06:00pm 7.7 4.2 3.6 75 1.7 W 11 15 6 8 1028.3 1028.3 0.0
21/05:30pm 7.9 4.7 3.2 72 2.0 WNW 9 11 5 6 1027.9 1027.9 0.0
21/05:00pm 8.2 4.6 3.1 70 2.1 W 11 15 6 8 1027.6 1027.6 0.0
21/04:30pm 8.7 4.6 2.5 65 2.6 WSW 13 17 7 9 1027.3 1027.3 0.0
21/04:00pm 9.3 5.1 1.9 60 3.1 SW 13 19 7 10 1026.9 1026.9 0.0
21/03:30pm 9.6 5.8 1.8 58 3.3 SW 11 19 6 10 1026.7 1026.7 0.0
21/03:00pm 10.3 6.9 1.9 56 3.5 SW 9 13 5 7 1026.4 1026.4 0.0
21/02:30pm 10.4 7.0 2.0 56 3.5 SW 9 13 5 7 1026.0 1026.0 0.0
21/02:00pm 9.3 4.9 2.6 63 2.8 SW 15 24 8 13 1026.0 1026.0 0.0
21/01:30pm 10.6 5.3 1.9 55 3.7 WSW 19 24 10 13 1025.9 1025.9 0.0
21/01:00pm 10.9 6.0 2.0 54 3.8 W 17 20 9 11 1025.8 1025.8 0.0
21/12:30pm 9.4 4.5 1.8 59 3.2 SW 17 24 9 13 1025.7 1025.7 0.0
21/12:00pm 11.0 5.6 2.3 55 3.7 W 20 28 11 15 1025.6 1025.6 0.0
21/11:30am 10.5 6.0 2.1 56 3.6 W 15 22 8 12 1025.5 1025.5 0.0
21/11:00am 10.0 5.5 2.1 58 3.3 W 15 22 8 12 1025.6 1025.6 0.0
21/10:30am 9.3 4.0 1.9 60 3.1 WSW 19 24 10 13 1025.9 1025.9 0.0
21/10:00am 8.9 3.7 2.7 65 2.6 W 19 22 10 12 1025.4 1025.4 0.0
21/09:30am 8.6 3.8 2.4 65 2.6 W 17 24 9 13 1025.0 1025.0 0.0
21/09:00am 8.3 3.4 2.3 66 2.5 WSW 17 30 9 16 1024.5 1024.5 3.0
21/08:30am 7.9 2.2 2.8 70 2.1 WSW 22 28 12 15 1024.4 1024.4 3.0
21/08:00am 8.2 3.6 1.6 63 2.7 SW 15 22 8 12 1023.7 1023.7 3.0
21/07:30am 8.5 3.0 1.6 62 2.8 W 20 28 11 15 1022.8 1022.8 3.0
21/07:00am 6.5 3.5 1.0 68 2.2 SW 6 7 3 4 1022.2 1022.2 3.0
21/06:30am 7.8 3.1 0.8 61 2.8 SW 15 24 8 13 1021.6 1021.6 3.0
21/06:00am 8.6 2.3 1.7 62 2.8 WSW 24 30 13 16 1020.7 1020.7 3.0
21/05:30am 8.4 1.6 1.1 60 3.0 W 26 35 14 19 1020.0 1020.0 3.0
21/05:00am 8.1 3.9 1.9 65 2.5 SW 13 22 7 12 1019.8 1019.8 3.0
21/04:30am 8.5 1.6 2.3 65 2.6 W 28 35 15 19 1019.0 1019.0 3.0
21/04:00am 8.1 2.8 2.1 66 2.5 SW 19 26 10 14 1018.9 1018.9 3.0
21/03:30am 8.3 0.4 2.1 65 2.6 WSW 33 44 18 24 1018.2 1018.2 3.0
21/03:12am 8.3 0.0 2.3 66 2.5 WSW 35 54 19 29 1017.6 1017.6 3.0
21/03:00am 8.7 0.9 1.8 62 2.8 SW 32 46 17 25 1017.7 1017.7 3.0
21/02:30am 8.8 0.8 1.7 61 2.9 WSW 33 48 18 26 1017.6 1017.6 3.0
21/02:00am 9.6 1.2 1.3 56 3.4 WSW 35 46 19 25 1016.5 1016.5 3.0
21/01:46am 9.5 1.7 1.4 57 3.3 W 32 50 17 27 1016.1 1016.1 3.0
21/01:30am 9.6 1.7 1.0 55 3.5 W 32 43 17 23 1016.0 1016.0 3.0
21/01:00am 9.6 4.1 2.0 59 3.2 W 20 41 11 22 1016.0 1016.0 3.0
21/12:30am 9.9 4.1 2.5 60 3.1 WSW 22 35 12 19 1015.5 1015.5 3.0
21/12:00am 9.7 6.7 3.9 67 2.5 SW 9 17 5 9 1015.4 1015.4 3.0
 
Date/Time
EST
Temp
°C
App
Temp
°C
Dew
Point
°C
Rel
Hum
%
Delta-T
°C
Wind Press
QNH
hPa
Press
MSL
hPa
Rain since
9am
mm
Dir  Spd
km/h
Gust
km/h
Spd
kts
Gust
kts
20/11:30pm 9.6 6.3 4.8 72 2.1 SSW 11 20 6 11 1015.1 1015.1 3.0
20/11:00pm 9.9 3.1 5.3 73 2.1 SW 30 46 16 25 1014.2 1014.2 3.0
20/10:30pm 11.2 4.4 4.9 65 2.9 W 30 50 16 27 1013.1 1013.1 2.6
20/10:00pm 11.3 6.7 5.4 67 2.7 WSW 19 24 10 13 1013.0 1013.0 2.6
20/09:30pm 11.5 4.7 7.0 74 2.1 WSW 32 44 17 24 1012.3 1012.3 2.6
20/09:00pm 11.9 4.9 8.6 80 1.6 W 35 48 19 26 1011.9 1011.9 2.4
20/08:30pm 12.1 3.5 8.8 80 1.6 W 44 67 24 36 1010.7 1010.7 1.8
20/08:21pm 12.7 8.4 9.5 81 1.6 WSW 22 56 12 30 1010.5 1010.5 1.6
20/08:00pm 14.0 10.0 8.2 68 2.9 W 19 30 10 16 1009.4 1009.4 0.2
20/07:30pm 15.7 11.0 6.2 53 4.6 NW 20 30 11 16 1008.7 1008.7 0.0
20/07:00pm 15.8 10.0 6.3 53 4.6 NW 26 41 14 22 1008.5 1008.5 0.0
20/06:30pm 15.6 9.5 6.6 55 4.4 NNW 28 37 15 20 1008.8 1008.8 0.0
20/06:00pm 15.2 9.1 6.5 56 4.2 NNW 28 43 15 23 1009.3 1009.3 0.0
20/05:30pm 15.8 11.2 5.4 50 5.0 NNW 19 32 10 17 1009.7 1009.7 0.0
20/05:00pm 14.4 9.5 6.7 60 3.7 N 22 26 12 14 1010.3 1010.3 0.0
20/04:30pm 14.9 10.5 6.7 58 4.0 N 19 28 10 15 1010.9 1010.9 0.0
20/04:00pm 15.9 12.7 5.2 49 5.1 NW 11 20 6 11 1011.6 1011.6 0.0
20/03:30pm 15.8 11.3 6.0 52 4.7 NNW 19 35 10 19 1011.9 1011.9 0.0
20/03:00pm 16.5 11.7 5.8 49 5.2 NW 20 43 11 23 1012.0 1012.0 0.0
20/02:30pm 16.7 12.0 5.3 47 5.5 NNW 19 35 10 19 1012.4 1012.4 0.0
20/02:00pm 16.8 12.3 6.3 50 5.1 WSW 19 35 10 19 1013.1 1013.1 0.0
20/01:30pm 16.3 11.8 7.0 54 4.6 W 20 32 11 17 1013.6 1013.6 0.0
20/01:00pm 16.5 13.2 8.0 57 4.3 W 15 24 8 13 1013.8 1013.8 0.0
20/12:30pm 15.1 11.1 8.1 63 3.5 N 19 24 10 13 1014.0 1014.0 0.0
20/12:00pm 15.1 12.0 7.4 60 3.8 NNW 13 24 7 13 1014.7 1014.7 0.0
20/11:30am 15.2 13.2 8.7 65 3.3 NNW 9 15 5 8 1015.4 1015.4 0.0
20/11:00am 14.8 11.3 7.1 60 3.8 NNW 15 22 8 12 1016.4 1016.4 0.0
20/10:30am 13.9 9.5 6.7 62 3.5 NNW 19 24 10 13 1016.8 1016.8 0.0
20/10:00am 13.8 10.1 6.4 61 3.5 NNW 15 19 8 10 1017.0 1017.0 0.0
20/09:30am 13.5 10.2 6.4 62 3.4 NNW 13 19 7 10 1017.3 1017.3 0.0
20/09:00am 12.9 9.6 6.5 65 3.0 NNW 13 17 7 9 1017.8 1017.8 0.0
20/08:30am 12.9 9.6 6.3 64 3.1 NW 13 17 7 9 1018.1 1018.1 0.0

Latest Capital City Observations: Canberra | Sydney | Melbourne | Brisbane | Adelaide | Perth | Hobart | Darwin

Other Formats:

Comma delimited format used in spreadsheet applications
http://www.bom.gov.au/fwo/IDT60901/IDT60901.94988.axf

JavaScript Object Notation format (JSON) in row-major order
http://www.bom.gov.au/fwo/IDT60901/IDT60901.94988.json